Time;durP1;ratioP1;P1;durP2;ratioP2;P2;SDS_P1;SDS_P2;PMS_P1;PMS_P2;Temp;Humidity;BMP_temperature;BMP_pressure;BME280_temperature;BME280_humidity;BME280_pressure;Samples;Min_cycle;Max_cycle;Signal;HPM_P1;HPM_P2
2023/02/17 00:02:37;;;;;;;37.30;23.70;;;;;;;6.09;85.19;100723.20;186239;1235;44114;-85
2023/02/17 00:06:39;;;;;;;37.60;27.40;;;;;;;6.10;85.21;100720.98;186477;1234;43685;-85
2023/02/17 00:10:41;;;;;;;43.40;28.60;;;;;;;6.14;85.37;100724.61;186397;1234;43626;-85
2023/02/17 00:14:43;;;;;;;45.50;28.90;;;;;;;6.17;85.63;100723.45;186378;1235;43701;-85
2023/02/17 00:18:45;;;;;;;38.20;25.60;;;;;;;6.21;85.46;100719.14;186350;1233;57889;-86
2023/02/17 00:22:48;;;;;;;44.40;24.40;;;;;;;6.25;85.89;100718.73;186392;1235;43604;-86
2023/02/17 00:26:50;;;;;;;36.50;25.30;;;;;;;6.28;85.83;100710.64;186273;1233;44068;-86
2023/02/17 00:30:52;;;;;;;39.00;25.70;;;;;;;6.31;85.74;100705.90;186300;1234;43996;-86
2023/02/17 00:34:55;;;;;;;49.30;26.80;;;;;;;6.36;85.82;100703.17;186425;1234;44046;-86
2023/02/17 00:38:57;;;;;;;42.60;24.00;;;;;;;6.40;86.23;100698.36;186456;1234;59430;-85
2023/02/17 00:42:59;;;;;;;44.00;24.90;;;;;;;6.40;86.75;100700.65;186516;1235;44083;-86
2023/02/17 00:47:01;;;;;;;39.00;25.80;;;;;;;6.39;87.24;100694.91;186312;1233;43962;-86
2023/02/17 00:51:04;;;;;;;42.10;24.80;;;;;;;6.41;87.14;100689.63;186333;1234;43866;-86
2023/02/17 00:55:06;;;;;;;39.60;25.90;;;;;;;6.48;86.97;100692.42;186254;1235;43713;-86
2023/02/17 00:59:08;;;;;;;37.80;25.20;;;;;;;6.57;87.02;100689.66;186358;1235;59789;-86
2023/02/17 01:03:10;;;;;;;42.10;25.30;;;;;;;6.66;87.20;100682.23;186316;1233;43750;-86
2023/02/17 01:07:13;;;;;;;39.20;23.10;;;;;;;6.71;87.37;100680.36;186355;1233;43995;-86
2023/02/17 01:11:26;;;;;;;55.30;25.10;;;;;;;6.74;87.13;100674.90;186494;1234;43693;-86
2023/02/17 01:15:29;;;;;;;36.60;22.70;;;;;;;6.76;86.65;100673.39;186454;1234;44114;-86
2023/02/17 01:19:32;;;;;;;30.40;20.50;;;;;;;6.80;86.27;100666.98;186223;1234;58053;-86
2023/02/17 01:23:34;;;;;;;31.80;21.60;;;;;;;6.83;86.12;100660.08;186319;1233;43944;-86
2023/02/17 01:27:36;;;;;;;32.70;22.70;;;;;;;6.92;85.77;100660.80;186360;1233;43961;-86
2023/02/17 01:31:39;;;;;;;36.60;22.60;;;;;;;7.04;85.88;100662.18;186274;1235;43886;-86
2023/02/17 01:35:41;;;;;;;39.20;22.90;;;;;;;7.09;85.43;100661.35;186267;1235;43677;-86
2023/02/17 01:39:43;;;;;;;32.90;21.80;;;;;;;7.14;85.32;100658.90;186364;1232;58312;-85
2023/02/17 01:44:09;;;;;;;25.00;18.30;;;;;;;7.19;85.53;100654.16;186343;1232;44229;-86
2023/02/17 01:48:15;;;;;;;26.40;20.50;;;;;;;7.29;86.04;100646.71;186621;1232;43625;-85
2023/02/17 01:52:23;;;;;;;;;;;;;;;7.36;86.45;100639.55;186214;1232;43823;-86
2023/02/17 01:56:25;;;;;;;34.30;21.50;;;;;;;7.38;86.54;100626.25;186513;1232;43551;-86
2023/02/17 02:00:30;;;;;;;28.60;19.40;;;;;;;7.34;86.40;100621.70;186432;1232;59165;-86
2023/02/17 02:04:36;;;;;;;35.50;21.30;;;;;;;7.28;86.68;100613.61;186463;1232;43805;-86
2023/02/17 02:09:30;;;;;;;36.00;21.80;;;;;;;7.26;86.88;100610.86;186502;1232;43970;-86
2023/02/17 02:13:32;;;;;;;30.40;21.10;;;;;;;7.20;87.48;100599.31;185003;1241;43731;-86
2023/02/17 02:17:47;;;;;;;30.30;19.80;;;;;;;7.21;88.30;100588.81;185031;1241;44087;-86
2023/02/17 02:21:58;;;;;;;27.50;18.10;;;;;;;7.23;88.41;100582.86;185072;1241;59397;-86
2023/02/17 02:26:02;;;;;;;28.50;18.40;;;;;;;7.28;88.43;100583.10;185426;1241;43632;-86
2023/02/17 02:30:48;;;;;;;33.40;17.40;;;;;;;7.37;88.08;100581.11;185386;1240;43802;-86
2023/02/17 02:35:00;;;;;;;26.70;17.00;;;;;;;7.46;87.86;100575.30;184767;1244;44096;-86
2023/02/17 02:39:13;;;;;;;25.20;15.60;;;;;;;7.50;87.87;100564.25;184752;1244;44101;-86
2023/02/17 02:43:16;;;;;;;28.10;18.20;;;;;;;7.54;87.65;100557.09;184922;1244;59206;-86
2023/02/17 02:47:46;;;;;;;36.00;19.70;;;;;;;7.56;87.53;100550.95;184725;1244;44119;-86
2023/02/17 02:52:09;;;;;;;26.10;17.60;;;;;;;7.53;87.44;100545.68;185764;1237;43998;-86
2023/02/17 02:56:35;;;;;;;29.10;19.00;;;;;;;7.48;87.18;100539.65;185925;1237;44049;-86
2023/02/17 03:00:52;;;;;;;22.50;17.10;;;;;;;7.42;87.00;100541.46;185674;1237;44149;-86
2023/02/17 03:05:22;;;;;;;26.30;17.00;;;;;;;7.36;87.37;100541.82;185667;1239;57938;-87
2023/02/17 03:09:26;;;;;;;25.10;16.50;;;;;;;7.37;87.44;100541.06;185813;1232;44130;-86
2023/02/17 03:13:28;;;;;;;22.30;15.80;;;;;;;7.36;87.58;100538.11;186447;1232;44042;-86
2023/02/17 03:17:32;;;;;;;23.20;15.40;;;;;;;7.36;87.64;100543.63;186529;1232;43587;-85
2023/02/17 03:21:40;;;;;;;22.70;16.20;;;;;;;7.31;88.30;100541.84;186471;1232;43999;-85
2023/02/17 03:25:43;;;;;;;24.40;14.00;;;;;;;7.21;89.79;100539.08;186613;1232;56916;-85
2023/02/17 03:29:45;;;;;;;20.80;14.00;;;;;;;7.20;90.38;100543.37;186412;1232;43979;-86
2023/02/17 03:33:48;;;;;;;21.40;14.60;;;;;;;7.17;90.88;100535.48;186375;1232;43979;-86
2023/02/17 03:37:49;;;;;;;22.10;12.90;;;;;;;7.12;91.68;100532.75;186521;1232;43932;-85
2023/02/17 03:41:51;;;;;;;19.10;11.00;;;;;;;7.15;91.78;100529.41;185954;1232;400515;-86
2023/02/17 03:45:54;;;;;;;20.50;12.90;;;;;;;7.18;91.68;100524.30;186141;1232;57457;-85
2023/02/17 03:49:56;;;;;;;16.80;12.20;;;;;;;7.20;92.10;100521.36;186375;1232;43713;-86
2023/02/17 03:53:58;;;;;;;18.30;10.30;;;;;;;7.26;92.42;100522.16;186273;1232;43735;-87
2023/02/17 03:58:00;;;;;;;19.10;14.70;;;;;;;7.39;92.26;100516.77;186077;1232;43691;-86
2023/02/17 04:02:03;;;;;;;18.40;14.80;;;;;;;7.56;91.68;100517.61;186240;1232;43959;-85
2023/02/17 04:06:05;;;;;;;18.00;12.10;;;;;;;7.71;91.30;100516.27;186397;1232;59164;-85
2023/02/17 04:10:08;;;;;;;18.50;12.40;;;;;;;7.82;90.95;100513.98;186144;1234;43604;-85
2023/02/17 04:14:10;;;;;;;19.00;13.40;;;;;;;7.97;90.52;100512.31;186115;1232;44017;-86
2023/02/17 04:18:13;;;;;;;24.60;14.20;;;;;;;8.08;90.27;100503.98;186234;1233;43730;-86
2023/02/17 04:22:15;;;;;;;23.10;15.10;;;;;;;8.22;89.54;100490.81;186197;1232;43637;-86
2023/02/17 04:26:17;;;;;;;23.30;14.70;;;;;;;8.34;88.48;100483.64;186207;1232;58715;-86
2023/02/17 04:30:19;;;;;;;19.00;13.50;;;;;;;8.41;87.76;100482.09;186122;1232;43794;-86
2023/02/17 04:34:21;;;;;;;19.70;12.70;;;;;;;8.41;87.40;100475.14;186280;1233;43741;-86
2023/02/17 04:38:22;;;;;;;19.20;12.80;;;;;;;8.40;87.24;100480.38;186144;1234;43647;-85
2023/02/17 04:42:24;;;;;;;29.20;14.80;;;;;;;8.37;86.91;100475.33;186285;1233;43932;-86
2023/02/17 04:46:28;;;;;;;19.40;14.70;;;;;;;8.28;86.74;100465.13;186098;1232;57916;-86
2023/02/17 04:50:31;;;;;;;17.50;13.00;;;;;;;8.22;86.65;100464.13;186330;1232;43612;-84
2023/02/17 04:54:33;;;;;;;22.60;14.10;;;;;;;8.18;86.77;100468.11;186190;1232;43998;-85
2023/02/17 04:58:35;;;;;;;22.40;16.50;;;;;;;8.15;86.88;100468.66;186175;1232;43723;-85
2023/02/17 05:02:37;;;;;;;23.10;17.60;;;;;;;8.13;86.60;100462.41;186348;1232;43734;-85
2023/02/17 05:06:39;;;;;;;26.50;16.60;;;;;;;8.13;86.08;100454.48;186227;1234;60426;-85
2023/02/17 05:10:43;;;;;;;25.50;19.70;;;;;;;8.11;85.94;100446.16;186254;1232;44112;-85
2023/02/17 05:14:45;;;;;;;25.50;18.40;;;;;;;8.12;85.73;100440.95;186431;1232;43733;-86
2023/02/17 05:18:47;;;;;;;23.10;17.50;;;;;;;8.14;85.75;100444.16;186187;1232;43695;-86
2023/02/17 05:22:49;;;;;;;26.30;17.60;;;;;;;8.12;85.53;100445.56;186229;1232;44178;-86
2023/02/17 05:26:51;;;;;;;19.40;15.30;;;;;;;8.13;85.75;100451.66;186154;1232;59404;-86
2023/02/17 05:30:52;;;;;;;38.10;21.00;;;;;;;8.14;87.55;100449.51;186041;1232;43765;-85
2023/02/17 05:34:54;;;;;;;30.90;19.00;;;;;;;8.12;89.18;100446.29;186265;1232;43982;-86
2023/02/17 05:38:57;;;;;;;27.50;17.90;;;;;;;8.06;90.34;100433.95;186224;1232;43739;-86
2023/02/17 05:42:59;;;;;;;107.00;81.60;;;;;;;8.01;91.70;100430.45;186167;1232;43858;-86
2023/02/17 05:47:02;;;;;;;40.80;28.50;;;;;;;7.97;92.43;100429.09;186186;1232;58180;-87
2023/02/17 05:51:04;;;;;;;42.70;23.80;;;;;;;7.89;93.60;100427.50;186189;1234;43709;-86
2023/02/17 05:55:06;;;;;;;33.90;24.50;;;;;;;7.78;94.24;100419.05;186401;1232;43674;-86
2023/02/17 05:59:08;;;;;;;36.70;25.70;;;;;;;7.74;94.58;100421.45;186203;1232;43820;-86
2023/02/17 06:03:10;;;;;;;34.10;23.00;;;;;;;7.77;94.54;100426.39;186216;1232;43707;-86
2023/02/17 06:07:12;;;;;;;36.70;21.50;;;;;;;7.82;94.85;100431.90;186421;1232;59067;-86
2023/02/17 06:11:14;;;;;;;28.10;18.10;;;;;;;7.86;95.15;100427.22;186322;1232;43835;-86
2023/02/17 06:15:16;;;;;;;32.20;21.70;;;;;;;7.89;95.55;100423.29;186296;1232;43674;-87
2023/02/17 06:19:18;;;;;;;32.70;20.00;;;;;;;7.91;95.58;100418.57;186255;1235;43847;-86
2023/02/17 06:23:20;;;;;;;32.30;21.70;;;;;;;7.93;95.08;100422.98;186236;1232;43795;-86
2023/02/17 06:27:22;;;;;;;25.70;17.90;;;;;;;8.00;94.96;100425.17;186377;1232;59248;-86
2023/02/17 06:31:24;;;;;;;25.60;19.80;;;;;;;7.95;95.48;100420.73;186189;1232;43689;-86
2023/02/17 06:35:25;;;;;;;32.20;21.00;;;;;;;7.96;95.24;100420.48;186276;1232;43677;-86
2023/02/17 06:39:28;;;;;;;31.30;19.90;;;;;;;7.98;95.21;100421.43;186468;1232;43926;-86
2023/02/17 06:43:30;;;;;;;29.00;18.80;;;;;;;7.95;94.95;100417.36;186263;1232;43657;-86
2023/02/17 06:47:32;;;;;;;27.70;19.90;;;;;;;7.94;94.39;100413.60;186250;1232;59325;-88
2023/02/17 06:51:34;;;;;;;31.80;19.60;;;;;;;7.93;94.61;100412.79;186212;1232;44045;-86
2023/02/17 06:55:38;;;;;;;32.30;20.00;;;;;;;7.90;95.04;100412.98;186225;1232;43800;-87
2023/02/17 06:59:43;;;;;;;25.20;18.00;;;;;;;7.95;95.23;100414.60;186289;1232;43886;-87
2023/02/17 07:03:45;;;;;;;31.60;21.90;;;;;;;7.96;95.76;100413.11;186325;1232;43647;-86
2023/02/17 07:07:47;;;;;;;41.50;21.60;;;;;;;7.94;96.70;100412.20;186303;1232;59295;-86
2023/02/17 07:11:50;;;;;;;45.80;27.70;;;;;;;7.94;96.91;100412.88;186112;1232;43773;-86
2023/02/17 07:15:51;;;;;;;44.30;28.90;;;;;;;7.92;96.79;100404.75;186141;1232;43646;-86
2023/02/17 07:19:53;;;;;;;35.60;23.10;;;;;;;7.96;96.41;100408.64;186177;1234;43838;-86
2023/02/17 07:23:55;;;;;;;40.90;25.90;;;;;;;8.02;96.18;100407.25;186244;1232;43672;-86
2023/02/17 07:27:58;;;;;;;54.60;27.50;;;;;;;8.06;96.07;100409.93;186233;1232;60137;-86
2023/02/17 07:32:01;;;;;;;32.30;24.30;;;;;;;8.11;96.02;100408.52;186252;1232;43594;-85
2023/02/17 07:36:07;;;;;;;32.90;23.90;;;;;;;8.17;96.11;100404.23;186455;1232;43633;-87
2023/02/17 07:40:10;;;;;;;39.20;24.30;;;;;;;8.20;96.55;100398.71;186367;1232;43729;-86
2023/02/17 07:44:12;;;;;;;31.90;22.90;;;;;;;8.28;96.68;100396.08;186215;1232;43751;-86
2023/02/17 07:48:15;;;;;;;40.30;23.40;;;;;;;8.33;97.30;100400.98;186233;1232;60248;-86
2023/02/17 07:52:17;;;;;;;31.50;20.00;;;;;;;8.41;98.06;100400.63;186179;1232;43797;-86
2023/02/17 07:56:21;;;;;;;34.30;20.30;;;;;;;8.46;98.36;100399.94;186275;1232;43769;-86
2023/02/17 08:00:22;;;;;;;30.00;20.30;;;;;;;8.55;97.58;100397.42;186248;1232;43858;-87
2023/02/17 08:04:28;;;;;;;;;;;;;;;8.62;96.95;100400.78;186135;1232;43766;-86
2023/02/17 08:17:11;;;;;;;23.00;17.90;;;;;;;8.84;98.87;100390.14;186288;1232;43725;-86
2023/02/17 08:21:13;;;;;;;26.20;17.60;;;;;;;8.98;99.79;100390.38;186053;1232;43740;-86
2023/02/17 08:25:15;;;;;;;14.70;10.20;;;;;;;9.08;100.00;100394.47;186256;1233;43728;-86
2023/02/17 08:29:19;;;;;;;10.30;8.60;;;;;;;9.25;100.00;100382.56;186199;1232;58051;-86
2023/02/17 08:33:21;;;;;;;12.30;9.90;;;;;;;9.55;100.00;100381.44;186234;1232;43831;-86
2023/02/17 08:37:23;;;;;;;11.10;8.80;;;;;;;9.78;100.00;100374.17;186366;1233;43808;-86
2023/02/17 08:41:29;;;;;;;12.60;9.60;;;;;;;9.95;100.00;100363.65;186268;1233;43814;-86
2023/02/17 08:45:31;;;;;;;13.60;8.80;;;;;;;10.09;100.00;100360.96;186275;1233;43878;-86
2023/02/17 08:49:34;;;;;;;14.30;8.90;;;;;;;10.30;100.00;100354.08;186280;1234;58269;-86
2023/02/17 08:53:36;;;;;;;12.00;8.60;;;;;;;10.48;100.00;100350.67;186528;1232;43771;-86
2023/02/17 08:57:38;;;;;;;11.50;7.40;;;;;;;10.59;100.00;100348.20;186089;1237;43991;-86
2023/02/17 09:01:41;;;;;;;7.80;6.30;;;;;;;10.68;100.00;100344.31;186238;1233;43874;-86
2023/02/17 09:05:43;;;;;;;11.00;7.50;;;;;;;10.68;100.00;100345.02;186110;1233;43706;-86
2023/02/17 09:09:44;;;;;;;10.80;8.40;;;;;;;10.71;100.00;100342.48;186209;1234;59578;-85
2023/02/17 09:13:46;;;;;;;12.10;8.50;;;;;;;10.67;100.00;100347.92;186236;1234;43730;-86
2023/02/17 09:17:48;;;;;;;8.80;5.60;;;;;;;10.62;100.00;100355.61;186490;1233;43635;-86
2023/02/17 09:21:51;;;;;;;13.00;6.60;;;;;;;10.58;100.00;100364.58;186208;1232;43794;-86
2023/02/17 09:26:11;;;;;;;10.20;8.10;;;;;;;10.56;100.00;100358.02;186374;1232;43984;-86
2023/02/17 09:30:13;;;;;;;9.50;7.10;;;;;;;10.58;100.00;100353.79;186802;1233;59158;-86
2023/02/17 09:34:15;;;;;;;10.70;7.20;;;;;;;10.63;100.00;100347.38;186321;1234;43719;-86
2023/02/17 09:38:17;;;;;;;9.20;7.10;;;;;;;10.71;100.00;100347.59;186448;1234;43557;-86
2023/02/17 09:42:22;;;;;;;9.00;7.20;;;;;;;10.76;100.00;100346.49;186308;1234;43986;-86
2023/02/17 09:46:31;;;;;;;12.00;7.70;;;;;;;10.83;100.00;100342.21;186302;1234;43711;-86
2023/02/17 09:50:44;;;;;;;11.70;7.20;;;;;;;10.86;100.00;100343.23;186050;1234;59330;-86
2023/02/17 09:55:04;;;;;;;11.90;7.80;;;;;;;10.90;100.00;100342.33;186103;1233;43583;-86
2023/02/17 09:59:45;;;;;;;8.80;7.80;;;;;;;10.91;100.00;100341.52;186518;1232;44184;-86
2023/02/17 10:03:54;;;;;;;8.90;7.90;;;;;;;10.96;100.00;100327.29;186498;1232;43635;-86
2023/02/17 10:08:03;;;;;;;8.30;7.00;;;;;;;11.03;100.00;100317.32;186268;1232;44000;-85
2023/02/17 10:12:12;;;;;;;11.00;7.70;;;;;;;11.08;100.00;100312.45;186488;1233;58471;-86
2023/02/17 10:16:22;;;;;;;10.30;6.30;;;;;;;11.17;99.72;100308.20;186249;1233;43640;-86
2023/02/17 10:20:30;;;;;;;7.70;6.50;;;;;;;11.26;99.66;100307.83;186279;1234;44054;-86
2023/02/17 10:24:32;;;;;;;11.40;7.70;;;;;;;11.33;98.71;100311.45;186490;1234;43760;-86
2023/02/17 10:28:49;;;;;;;13.10;8.40;;;;;;;11.35;98.32;100304.90;186238;1233;43807;-86
2023/02/17 10:33:10;;;;;;;11.30;7.70;;;;;;;11.36;99.14;100297.77;186076;1232;58532;-86
2023/02/17 10:37:30;;;;;;;9.10;6.70;;;;;;;11.35;99.87;100291.39;186544;1232;43965;-86
2023/02/17 10:41:35;;;;;;;10.00;6.60;;;;;;;11.29;100.00;100291.52;186071;1233;43693;-86
2023/02/17 10:45:42;;;;;;;9.40;8.00;;;;;;;11.31;100.00;100285.02;186097;1233;43888;-86
2023/02/17 10:49:48;;;;;;;11.20;7.50;;;;;;;11.31;100.00;100274.35;186252;1232;43722;-86
2023/02/17 10:54:10;;;;;;;11.10;8.60;;;;;;;11.29;100.00;100261.55;186503;1233;59329;-86
2023/02/17 10:58:12;;;;;;;9.70;7.50;;;;;;;11.23;100.00;100250.20;186282;1233;44068;-86
2023/02/17 11:02:37;;;;;;;11.30;8.40;;;;;;;11.27;100.00;100236.98;186279;1233;43699;-87
2023/02/17 11:06:53;;;;;;;7.60;6.70;;;;;;;11.37;100.00;100221.81;186431;1233;43743;-86
2023/02/17 11:11:05;;;;;;;11.70;7.30;;;;;;;11.47;99.12;100220.41;186243;1234;43830;-86
2023/02/17 11:15:17;;;;;;;9.00;6.10;;;;;;;11.57;97.89;100212.10;186052;1234;59066;-86
2023/02/17 11:19:24;;;;;;;8.20;7.40;;;;;;;11.59;97.48;100209.30;186228;1234;43678;-86
2023/02/17 11:23:26;;;;;;;11.70;7.70;;;;;;;11.52;97.11;100198.70;186507;1233;43688;-86
2023/02/17 11:27:28;;;;;;;10.50;7.00;;;;;;;11.56;96.83;100187.50;186300;1232;44028;-86
2023/02/17 11:31:30;;;;;;;9.60;7.50;;;;;;;11.54;96.16;100172.56;186231;1234;44123;-86
2023/02/17 11:35:35;;;;;;;9.10;7.20;;;;;;;11.59;96.38;100163.29;186247;1232;58119;-85
2023/02/17 11:39:42;;;;;;;7.80;6.40;;;;;;;11.57;96.31;100151.16;186601;1232;43686;-86
2023/02/17 11:43:58;;;;;;;13.10;8.30;;;;;;;11.66;96.37;100138.67;186224;1234;43831;-86
2023/02/17 11:48:13;;;;;;;9.60;6.90;;;;;;;11.70;94.85;100122.13;186816;1234;43732;-86
2023/02/17 11:52:31;;;;;;;6.10;5.10;;;;;;;11.71;94.69;100118.29;186446;1233;43715;-86
2023/02/17 11:56:39;;;;;;;11.30;7.80;;;;;;;11.72;94.39;100112.26;186498;1234;59374;-86
2023/02/17 12:00:47;;;;;;;8.90;7.40;;;;;;;11.75;93.86;100098.61;186253;1234;43652;-86
2023/02/17 12:04:59;;;;;;;8.10;6.20;;;;;;;11.81;94.06;100087.98;186513;1233;43903;-86
2023/02/17 12:09:33;;;;;;;8.40;6.80;;;;;;;11.78;93.57;100075.81;186215;1234;43769;-86
2023/02/17 12:13:40;;;;;;;7.50;6.60;;;;;;;11.80;95.20;100067.31;186078;1234;43955;-86
2023/02/17 12:17:54;;;;;;;9.40;6.10;;;;;;;11.80;94.22;100059.59;186226;1234;58468;-86
2023/02/17 12:22:22;;;;;;;7.50;6.30;;;;;;;11.90;94.93;100054.48;186459;1233;43685;-87
2023/02/17 12:26:38;;;;;;;9.30;8.10;;;;;;;11.96;94.81;100052.66;186506;1234;43634;-86
2023/02/17 12:31:09;;;;;;;8.60;7.40;;;;;;;12.01;94.38;100044.13;186201;1235;43745;-86
2023/02/17 12:35:20;;;;;;;8.20;6.20;;;;;;;12.05;94.41;100029.31;186101;1233;44038;-86
2023/02/17 12:39:35;;;;;;;7.70;5.40;;;;;;;12.18;95.28;100021.92;186085;1235;59165;-86
2023/02/17 12:43:48;;;;;;;10.30;7.30;;;;;;;12.28;94.11;100012.52;186245;1234;43798;-86
2023/02/17 12:48:07;;;;;;;10.00;6.90;;;;;;;12.35;93.52;100003.31;186123;1233;43664;-86
2023/02/17 12:52:18;;;;;;;7.90;6.90;;;;;;;12.43;92.68;99998.80;186288;1232;43794;-86
2023/02/17 12:56:27;;;;;;;7.70;5.80;;;;;;;12.48;91.11;99997.16;186257;1237;43715;-87
2023/02/17 13:00:49;;;;;;;6.40;5.30;;;;;;;12.46;88.59;99994.50;186441;1233;58007;-86
2023/02/17 13:04:54;;;;;;;8.10;6.00;;;;;;;12.44;87.69;99983.44;186490;1234;43820;-86
2023/02/17 13:09:01;;;;;;;9.20;5.50;;;;;;;12.42;86.54;99969.06;186111;1232;43779;-86
2023/02/17 13:13:03;;;;;;;7.20;5.80;;;;;;;12.45;85.96;99963.95;186217;1232;43709;-86
2023/02/17 13:17:05;;;;;;;7.20;5.60;;;;;;;12.36;85.76;99960.85;186268;1234;43787;-86
2023/02/17 13:21:19;;;;;;;5.80;5.20;;;;;;;12.33;86.12;99957.95;186214;1232;58082;-86
2023/02/17 13:25:30;;;;;;;9.50;6.20;;;;;;;12.25;86.25;99948.91;186451;1232;43741;-86
2023/02/17 13:29:34;;;;;;;6.80;5.30;;;;;;;12.22;86.30;99940.16;186238;1235;44030;-86
2023/02/17 13:33:42;;;;;;;7.80;5.40;;;;;;;12.21;87.93;99935.92;186207;1233;43634;-86
2023/02/17 13:37:45;;;;;;;4.20;3.70;;;;;;;12.08;90.71;99922.36;186290;1236;43958;-86
2023/02/17 13:41:48;;;;;;;6.20;5.00;;;;;;;11.97;90.03;99907.41;186121;1233;59547;-86
2023/02/17 13:45:59;;;;;;;5.10;4.40;;;;;;;11.93;89.83;99893.73;186060;1235;43692;-86
2023/02/17 13:50:01;;;;;;;6.10;5.20;;;;;;;11.95;90.52;99881.99;186023;1235;43737;-86
2023/02/17 13:54:05;;;;;;;6.20;5.50;;;;;;;11.95;91.03;99872.06;186086;1232;43788;-86
2023/02/17 13:58:09;;;;;;;8.10;4.80;;;;;;;11.99;90.78;99865.33;186181;1235;43731;-86
2023/02/17 14:02:19;;;;;;;6.50;4.90;;;;;;;12.06;91.04;99854.89;186166;1234;58110;-86
2023/02/17 14:06:39;;;;;;;5.60;5.10;;;;;;;12.11;90.86;99846.98;186219;1233;43728;-86
2023/02/17 14:10:41;;;;;;;5.40;4.90;;;;;;;12.12;91.49;99845.84;186115;1235;43808;-86
2023/02/17 14:14:42;;;;;;;5.40;4.40;;;;;;;12.18;91.74;99845.63;186089;1233;44108;-86
2023/02/17 14:18:44;;;;;;;5.70;3.40;;;;;;;12.25;91.76;99836.86;186097;1235;43705;-86
2023/02/17 14:22:46;;;;;;;6.30;3.20;;;;;;;12.27;92.01;99839.23;186006;1232;59614;-86
2023/02/17 14:27:07;;;;;;;4.70;3.90;;;;;;;12.30;92.22;99837.86;186136;1235;44024;-87
2023/02/17 14:31:11;;;;;;;4.20;3.80;;;;;;;12.31;92.46;99830.84;186276;1232;43749;-86
2023/02/17 14:35:13;;;;;;;5.10;3.30;;;;;;;12.35;92.16;99812.15;186243;1232;43695;-88
2023/02/17 14:39:15;;;;;;;6.50;4.10;;;;;;;12.38;92.42;99803.27;186288;1232;43712;-87
2023/02/17 14:43:17;;;;;;;4.20;3.40;;;;;;;12.49;92.72;99800.16;186149;1232;59865;-86
2023/02/17 14:47:18;;;;;;;4.70;3.20;;;;;;;12.54;93.00;99793.21;186115;1233;43670;-86
2023/02/17 14:51:24;;;;;;;4.00;3.30;;;;;;;12.70;93.15;99785.60;186233;1232;44040;-86
2023/02/17 14:55:28;;;;;;;3.30;2.50;;;;;;;12.78;93.62;99777.01;186214;1232;43818;-86
2023/02/17 14:59:30;;;;;;;3.70;2.10;;;;;;;12.93;93.65;99765.05;186580;1232;43848;-86
2023/02/17 15:03:33;;;;;;;4.40;2.70;;;;;;;13.05;93.69;99750.55;186218;1234;58449;-86
2023/02/17 15:07:35;;;;;;;2.80;2.60;;;;;;;13.18;93.27;99742.24;186224;1233;43968;-86
2023/02/17 15:11:38;;;;;;;4.40;2.10;;;;;;;13.28;93.14;99723.56;186141;1235;43897;-86
2023/02/17 15:15:43;;;;;;;5.40;2.20;;;;;;;13.30;93.53;99711.09;186143;1236;43778;-86
2023/02/17 15:19:48;;;;;;;2.90;2.20;;;;;;;13.40;92.73;99697.89;186093;1236;43933;-87
2023/02/17 15:23:50;;;;;;;3.90;2.40;;;;;;;13.50;92.20;99693.83;186480;1235;59426;-89
2023/02/17 15:27:52;;;;;;;4.00;2.50;;;;;;;13.60;91.73;99695.30;186454;1232;43661;-88
2023/02/17 15:31:55;;;;;;;2.30;2.10;;;;;;;13.64;91.10;99688.81;186396;1232;44058;-89
2023/02/17 15:35:57;;;;;;;1.80;1.60;;;;;;;13.69;90.58;99684.78;186267;1232;44046;-87
2023/02/17 15:39:59;;;;;;;2.50;1.60;;;;;;;13.78;90.28;99692.04;186330;1232;43813;-87
2023/02/17 15:44:04;;;;;;;2.70;2.20;;;;;;;13.81;89.56;99688.48;185239;1235;1212313;-88
2023/02/17 15:48:12;;;;;;;1.80;1.60;;;;;;;13.86;89.14;99688.89;186188;1235;44061;-88
2023/02/17 15:52:14;;;;;;;2.60;2.10;;;;;;;13.86;88.61;99687.26;186001;1235;43675;-87
2023/02/17 15:56:21;;;;;;;7.90;3.60;;;;;;;13.86;88.40;99685.29;186233;1232;43854;-87
2023/02/17 16:00:26;;;;;;;3.40;3.00;;;;;;;13.83;87.79;99689.12;186216;1232;43651;-87
2023/02/17 16:04:28;;;;;;;2.40;2.10;;;;;;;13.86;86.66;99689.73;186119;1234;58922;-87
2023/02/17 16:08:29;;;;;;;3.80;2.80;;;;;;;13.89;86.29;99680.67;186197;1232;43745;-87
2023/02/17 16:12:31;;;;;;;5.90;2.60;;;;;;;13.84;86.12;99687.79;186319;1232;43770;-87
2023/02/17 16:16:34;;;;;;;5.00;3.20;;;;;;;13.77;86.45;99691.91;186210;1232;43882;-87
2023/02/17 16:20:36;;;;;;;3.40;2.10;;;;;;;13.72;85.87;99685.86;186220;1234;43735;-87
2023/02/17 16:24:38;;;;;;;3.20;2.50;;;;;;;13.72;85.75;99680.31;186130;1234;59454;-87
2023/02/17 16:28:40;;;;;;;3.60;2.40;;;;;;;13.65;85.66;99686.38;186276;1234;43857;-87
2023/02/17 16:32:41;;;;;;;4.40;3.10;;;;;;;13.67;85.59;99704.56;186176;1236;43678;-87
2023/02/17 16:36:43;;;;;;;4.60;3.00;;;;;;;13.67;85.28;99698.61;186261;1232;43803;-87
2023/02/17 16:40:48;;;;;;;2.90;1.80;;;;;;;13.70;84.56;99703.30;186275;1233;43926;-87
2023/02/17 16:44:50;;;;;;;3.60;2.90;;;;;;;13.76;84.38;99703.45;186100;1232;59335;-87
2023/02/17 16:48:52;;;;;;;2.80;2.40;;;;;;;13.71;84.51;99705.88;186147;1233;43646;-86
2023/02/17 16:52:57;;;;;;;3.70;2.70;;;;;;;13.70;84.26;99693.16;186223;1232;43976;-87
2023/02/17 16:57:00;;;;;;;6.50;2.70;;;;;;;13.70;84.52;99691.44;186158;1235;43747;-87
2023/02/17 17:01:03;;;;;;;3.10;2.60;;;;;;;13.64;85.33;99691.52;186498;1232;43680;-87
2023/02/17 17:05:06;;;;;;;3.40;2.60;;;;;;;13.62;85.34;99691.02;186256;1232;57467;-87
2023/02/17 17:09:15;;;;;;;6.10;2.80;;;;;;;13.61;85.59;99698.05;186399;1232;43770;-87
2023/02/17 17:13:17;;;;;;;3.30;2.80;;;;;;;13.58;85.63;99705.09;186233;1232;43677;-87
2023/02/17 17:17:19;;;;;;;2.60;1.80;;;;;;;13.56;85.69;99693.89;186167;1232;43864;-87
2023/02/17 17:21:21;;;;;;;4.80;2.80;;;;;;;13.55;86.02;99698.11;186169;1232;43969;-87
2023/02/17 17:25:23;;;;;;;5.00;3.20;;;;;;;13.53;86.05;99690.99;186114;1232;60516;-87
2023/02/17 17:29:25;;;;;;;4.10;2.70;;;;;;;13.49;86.47;99681.40;186165;1232;43864;-87
2023/02/17 17:33:26;;;;;;;4.50;3.70;;;;;;;13.50;86.63;99673.35;186141;1232;43670;-87
2023/02/17 17:37:28;;;;;;;4.40;3.20;;;;;;;13.50;86.35;99670.64;186088;1234;43992;-87
2023/02/17 17:41:30;;;;;;;3.20;2.40;;;;;;;13.52;86.31;99653.65;186258;1232;43722;-87
2023/02/17 17:45:33;;;;;;;2.90;2.50;;;;;;;13.52;86.83;99671.08;186172;1232;57838;-88
2023/02/17 17:49:35;;;;;;;4.90;3.60;;;;;;;13.52;86.78;99676.83;186288;1232;43743;-87
2023/02/17 17:53:37;;;;;;;3.00;2.40;;;;;;;13.50;87.13;99685.81;186263;1232;43860;-87
2023/02/17 17:57:39;;;;;;;3.90;3.30;;;;;;;13.49;87.42;99686.95;186199;1232;43809;-87
2023/02/17 18:01:41;;;;;;;2.90;2.60;;;;;;;13.54;87.01;99694.80;186137;1232;43732;-87
2023/02/17 18:05:47;;;;;;;4.00;3.30;;;;;;;13.53;86.78;99681.59;186134;1235;58112;-87
2023/02/17 18:09:49;;;;;;;6.20;2.40;;;;;;;13.62;86.96;99681.72;186164;1232;44026;-87
2023/02/17 18:13:53;;;;;;;2.00;1.80;;;;;;;13.60;87.00;99682.08;186377;1235;43732;-87
2023/02/17 18:17:56;;;;;;;4.30;2.70;;;;;;;13.61;87.09;99676.38;186189;1232;43668;-87
2023/02/17 18:21:58;;;;;;;2.20;1.80;;;;;;;13.63;87.05;99663.08;186293;1232;43723;-87
2023/02/17 18:25:59;;;;;;;2.40;2.00;;;;;;;13.62;87.44;99659.48;186114;1232;58692;-87
2023/02/17 18:30:02;;;;;;;4.80;2.10;;;;;;;13.58;87.72;99645.94;186202;1232;43978;-87
2023/02/17 18:34:04;;;;;;;2.10;1.60;;;;;;;13.61;87.62;99654.09;186142;1232;44028;-87
2023/02/17 18:38:06;;;;;;;3.20;2.90;;;;;;;13.63;87.71;99655.10;186106;1232;44084;-87
2023/02/17 18:42:09;;;;;;;5.00;2.20;;;;;;;13.61;87.98;99645.17;186160;1232;43650;-87
2023/02/17 18:46:10;;;;;;;6.60;4.00;;;;;;;13.60;88.32;99661.88;186381;1232;59530;-87
2023/02/17 18:50:14;;;;;;;4.30;3.10;;;;;;;13.58;88.43;99662.34;186081;1232;43583;-87
2023/02/17 18:54:16;;;;;;;2.60;2.40;;;;;;;13.57;89.04;99670.29;186128;1232;44087;-87